sensor_id;sensor_type;location;lat;lon;timestamp;temperature;humidity
3986;DHT22;2007;48.750;9.278;2022-11-20T07:35:25;15.00;58.10
3986;DHT22;2007;48.750;9.278;2022-11-20T07:37:53;15.00;58.20
3986;DHT22;2007;48.750;9.278;2022-11-20T07:40:20;15.00;58.20
3986;DHT22;2007;48.750;9.278;2022-11-20T07:42:49;15.00;58.20
3986;DHT22;2007;48.750;9.278;2022-11-20T07:45:17;15.00;58.20
3986;DHT22;2007;48.750;9.278;2022-11-20T07:47:45;15.00;58.20
3986;DHT22;2007;48.750;9.278;2022-11-20T07:50:13;15.00;58.20
3986;DHT22;2007;48.750;9.278;2022-11-20T07:52:43;15.00;58.10
3986;DHT22;2007;48.750;9.278;2022-11-20T07:55:11;15.00;58.10
3986;DHT22;2007;48.750;9.278;2022-11-20T07:57:39;15.00;58.10
3986;DHT22;2007;48.750;9.278;2022-11-20T08:00:09;15.00;58.10
3986;DHT22;2007;48.750;9.278;2022-11-20T08:02:38;14.90;58.00
3986;DHT22;2007;48.750;9.278;2022-11-20T08:05:07;15.00;58.80
3986;DHT22;2007;48.750;9.278;2022-11-20T08:07:36;15.00;58.10
3986;DHT22;2007;48.750;9.278;2022-11-20T08:10:08;15.00;58.10
3986;DHT22;2007;48.750;9.278;2022-11-20T08:12:43;15.00;58.10
3986;DHT22;2007;48.750;9.278;2022-11-20T08:15:29;15.00;58.10
3986;DHT22;2007;48.750;9.278;2022-11-20T08:18:02;15.00;58.10
3986;DHT22;2007;48.750;9.278;2022-11-20T08:20:50;15.00;58.10
3986;DHT22;2007;48.750;9.278;2022-11-20T08:23:18;15.00;58.10
3986;DHT22;2007;48.750;9.278;2022-11-20T08:25:49;15.00;58.10
3986;DHT22;2007;48.750;9.278;2022-11-20T08:28:18;15.00;58.10
3986;DHT22;2007;48.750;9.278;2022-11-20T08:30:48;15.00;58.10
3986;DHT22;2007;48.750;9.278;2022-11-20T08:33:16;15.00;58.10
3986;DHT22;2007;48.750;9.278;2022-11-20T08:35:45;15.00;58.10
3986;DHT22;2007;48.750;9.278;2022-11-20T08:38:13;15.00;58.10
3986;DHT22;2007;48.750;9.278;2022-11-20T08:40:40;15.00;58.10
3986;DHT22;2007;48.750;9.278;2022-11-20T08:43:29;15.00;58.10
3986;DHT22;2007;48.750;9.278;2022-11-20T08:45:57;15.00;58.10
3986;DHT22;2007;48.750;9.278;2022-11-20T08:48:25;15.00;58.10
3986;DHT22;2007;48.750;9.278;2022-11-20T08:50:53;15.00;58.10
3986;DHT22;2007;48.750;9.278;2022-11-20T08:53:21;15.00;58.10
3986;DHT22;2007;48.750;9.278;2022-11-20T08:55:48;15.00;58.10
3986;DHT22;2007;48.750;9.278;2022-11-20T08:58:16;15.00;58.10
3986;DHT22;2007;48.750;9.278;2022-11-20T09:00:45;15.00;58.10
3986;DHT22;2007;48.750;9.278;2022-11-20T09:03:13;15.00;58.10
3986;DHT22;2007;48.750;9.278;2022-11-20T09:05:41;15.00;58.10
3986;DHT22;2007;48.750;9.278;2022-11-20T09:08:09;15.00;58.10
3986;DHT22;2007;48.750;9.278;2022-11-20T09:10:37;15.00;58.10
3986;DHT22;2007;48.750;9.278;2022-11-20T09:13:06;15.00;58.10
3986;DHT22;2007;48.750;9.278;2022-11-20T09:15:34;15.00;58.10
3986;DHT22;2007;48.750;9.278;2022-11-20T09:18:03;15.00;58.10
3986;DHT22;2007;48.750;9.278;2022-11-20T09:20:32;15.00;58.00
3986;DHT22;2007;48.750;9.278;2022-11-20T09:22:59;15.00;58.10
3986;DHT22;2007;48.750;9.278;2022-11-20T09:25:27;15.00;58.00
3986;DHT22;2007;48.750;9.278;2022-11-20T09:27:55;15.00;58.10
3986;DHT22;2007;48.750;9.278;2022-11-20T09:30:23;15.00;58.00
3986;DHT22;2007;48.750;9.278;2022-11-20T09:32:52;15.00;58.10
3986;DHT22;2007;48.750;9.278;2022-11-20T09:35:21;15.00;58.00
3986;DHT22;2007;48.750;9.278;2022-11-20T09:37:49;15.00;58.00
3986;DHT22;2007;48.750;9.278;2022-11-20T09:40:20;15.00;58.10
3986;DHT22;2007;48.750;9.278;2022-11-20T09:42:52;15.00;58.00
3986;DHT22;2007;48.750;9.278;2022-11-20T09:45:25;15.00;58.00
3986;DHT22;2007;48.750;9.278;2022-11-20T09:48:10;14.90;58.00
3986;DHT22;2007;48.750;9.278;2022-11-20T09:50:45;15.00;58.00
3986;DHT22;2007;48.750;9.278;2022-11-20T09:53:21;15.00;58.00
3986;DHT22;2007;48.750;9.278;2022-11-20T09:55:50;15.00;58.00
3986;DHT22;2007;48.750;9.278;2022-11-20T09:58:27;15.00;58.00
3986;DHT22;2007;48.750;9.278;2022-11-20T10:01:04;15.00;58.00
3986;DHT22;2007;48.750;9.278;2022-11-20T10:03:39;15.00;58.00
3986;DHT22;2007;48.750;9.278;2022-11-20T10:06:15;15.00;58.00
3986;DHT22;2007;48.750;9.278;2022-11-20T10:08:49;15.00;58.10
3986;DHT22;2007;48.750;9.278;2022-11-20T10:11:30;15.00;58.00
3986;DHT22;2007;48.750;9.278;2022-11-20T10:14:08;15.00;58.00
3986;DHT22;2007;48.750;9.278;2022-11-20T10:16:43;14.90;58.00
3986;DHT22;2007;48.750;9.278;2022-11-20T10:19:27;15.00;58.00
3986;DHT22;2007;48.750;9.278;2022-11-20T10:22:08;15.00;58.00
3986;DHT22;2007;48.750;9.278;2022-11-20T10:24:48;15.00;58.00
3986;DHT22;2007;48.750;9.278;2022-11-20T10:27:31;15.00;58.00
3986;DHT22;2007;48.750;9.278;2022-11-20T10:30:08;15.00;58.00
3986;DHT22;2007;48.750;9.278;2022-11-20T10:32:39;15.00;58.10
3986;DHT22;2007;48.750;9.278;2022-11-20T10:35:18;15.00;58.00
3986;DHT22;2007;48.750;9.278;2022-11-20T10:37:53;15.00;58.00
3986;DHT22;2007;48.750;9.278;2022-11-20T10:40:27;15.00;58.00
3986;DHT22;2007;48.750;9.278;2022-11-20T10:42:59;15.00;58.00
3986;DHT22;2007;48.750;9.278;2022-11-20T10:45:40;15.00;58.00
3986;DHT22;2007;48.750;9.278;2022-11-20T10:48:16;15.00;58.00
3986;DHT22;2007;48.750;9.278;2022-11-20T10:50:54;15.00;58.00
3986;DHT22;2007;48.750;9.278;2022-11-20T10:53:36;15.00;58.00
3986;DHT22;2007;48.750;9.278;2022-11-20T10:56:09;15.00;58.00
3986;DHT22;2007;48.750;9.278;2022-11-20T10:58:47;15.00;58.00
3986;DHT22;2007;48.750;9.278;2022-11-20T11:01:18;15.00;58.00
3986;DHT22;2007;48.750;9.278;2022-11-20T11:03:49;15.00;58.00
3986;DHT22;2007;48.750;9.278;2022-11-20T11:06:24;15.00;58.00
3986;DHT22;2007;48.750;9.278;2022-11-20T11:08:57;15.00;58.00
3986;DHT22;2007;48.750;9.278;2022-11-20T11:11:28;15.00;58.00
3986;DHT22;2007;48.750;9.278;2022-11-20T11:14:05;15.00;58.00
3986;DHT22;2007;48.750;9.278;2022-11-20T11:16:33;15.00;58.00
3986;DHT22;2007;48.750;9.278;2022-11-20T11:19:05;15.00;58.00
3986;DHT22;2007;48.750;9.278;2022-11-20T11:21:33;15.00;58.00
3986;DHT22;2007;48.750;9.278;2022-11-20T11:24:04;15.00;58.00
3986;DHT22;2007;48.750;9.278;2022-11-20T11:26:55;15.00;58.00
3986;DHT22;2007;48.750;9.278;2022-11-20T11:29:23;15.00;58.00
3986;DHT22;2007;48.750;9.278;2022-11-20T11:32:03;15.00;58.00
3986;DHT22;2007;48.750;9.278;2022-11-20T11:34:31;15.00;58.00
3986;DHT22;2007;48.750;9.278;2022-11-20T11:36:59;15.00;58.00
3986;DHT22;2007;48.750;9.278;2022-11-20T11:39:30;15.00;58.00
3986;DHT22;2007;48.750;9.278;2022-11-20T11:42:00;15.00;58.00
3986;DHT22;2007;48.750;9.278;2022-11-20T11:44:30;15.00;58.00
3986;DHT22;2007;48.750;9.278;2022-11-20T11:47:22;15.00;58.00
3986;DHT22;2007;48.750;9.278;2022-11-20T11:50:01;15.00;58.00
3986;DHT22;2007;48.750;9.278;2022-11-20T11:52:31;15.00;58.00
3986;DHT22;2007;48.750;9.278;2022-11-20T11:55:07;15.00;58.00
3986;DHT22;2007;48.750;9.278;2022-11-20T11:57:43;15.00;58.00
3986;DHT22;2007;48.750;9.278;2022-11-20T12:00:16;15.00;58.00
3986;DHT22;2007;48.750;9.278;2022-11-20T12:02:54;15.00;58.00
3986;DHT22;2007;48.750;9.278;2022-11-20T12:05:26;15.00;58.00
3986;DHT22;2007;48.750;9.278;2022-11-20T12:07:57;15.00;58.00
3986;DHT22;2007;48.750;9.278;2022-11-20T12:10:40;15.00;58.00
3986;DHT22;2007;48.750;9.278;2022-11-20T12:13:18;15.00;58.00
3986;DHT22;2007;48.750;9.278;2022-11-20T12:15:48;15.00;58.00
3986;DHT22;2007;48.750;9.278;2022-11-20T12:18:18;15.00;58.00
3986;DHT22;2007;48.750;9.278;2022-11-20T12:20:56;15.00;58.00
3986;DHT22;2007;48.750;9.278;2022-11-20T12:23:35;15.00;58.00
3986;DHT22;2007;48.750;9.278;2022-11-20T12:26:10;15.00;58.00
3986;DHT22;2007;48.750;9.278;2022-11-20T12:28:52;15.00;58.00
3986;DHT22;2007;48.750;9.278;2022-11-20T12:34:33;15.00;58.00
3986;DHT22;2007;48.750;9.278;2022-11-20T12:37:13;15.00;58.00
3986;DHT22;2007;48.750;9.278;2022-11-20T12:39:42;15.00;58.00
3986;DHT22;2007;48.750;9.278;2022-11-20T12:42:40;15.00;58.00
3986;DHT22;2007;48.750;9.278;2022-11-20T12:45:57;15.00;57.90
3986;DHT22;2007;48.750;9.278;2022-11-20T12:48:42;15.00;58.00
3986;DHT22;2007;48.750;9.278;2022-11-20T12:51:25;15.00;57.90
3986;DHT22;2007;48.750;9.278;2022-11-20T12:54:14;15.00;57.90
3986;DHT22;2007;48.750;9.278;2022-11-20T12:56:49;15.00;57.90
3986;DHT22;2007;48.750;9.278;2022-11-20T12:59:37;15.00;57.90
3986;DHT22;2007;48.750;9.278;2022-11-20T13:02:19;15.00;57.90
3986;DHT22;2007;48.750;9.278;2022-11-20T13:05:13;15.00;57.90
3986;DHT22;2007;48.750;9.278;2022-11-20T13:07:44;15.00;57.90
3986;DHT22;2007;48.750;9.278;2022-11-20T13:10:18;15.00;57.90
3986;DHT22;2007;48.750;9.278;2022-11-20T13:12:51;15.00;57.90
3986;DHT22;2007;48.750;9.278;2022-11-20T13:15:35;15.00;57.90
3986;DHT22;2007;48.750;9.278;2022-11-20T13:18:07;15.00;57.90
3986;DHT22;2007;48.750;9.278;2022-11-20T13:20:36;15.00;57.90
3986;DHT22;2007;48.750;9.278;2022-11-20T13:23:08;15.00;57.90
3986;DHT22;2007;48.750;9.278;2022-11-20T13:25:37;15.00;57.90
3986;DHT22;2007;48.750;9.278;2022-11-20T13:28:26;15.00;57.80
3986;DHT22;2007;48.750;9.278;2022-11-20T13:30:56;15.00;57.90
3986;DHT22;2007;48.750;9.278;2022-11-20T13:33:29;15.00;57.90
3986;DHT22;2007;48.750;9.278;2022-11-20T13:35:59;15.00;57.80
3986;DHT22;2007;48.750;9.278;2022-11-20T13:38:39;15.00;57.80
3986;DHT22;2007;48.750;9.278;2022-11-20T13:41:08;15.00;57.80
3986;DHT22;2007;48.750;9.278;2022-11-20T13:43:51;15.00;57.80
3986;DHT22;2007;48.750;9.278;2022-11-20T13:46:20;15.00;57.80
3986;DHT22;2007;48.750;9.278;2022-11-20T13:48:51;15.00;57.80
3986;DHT22;2007;48.750;9.278;2022-11-20T13:51:29;15.00;57.80
3986;DHT22;2007;48.750;9.278;2022-11-20T13:57:11;15.00;57.80
3986;DHT22;2007;48.750;9.278;2022-11-20T13:59:51;15.00;57.80
3986;DHT22;2007;48.750;9.278;2022-11-20T14:02:27;15.00;57.80
3986;DHT22;2007;48.750;9.278;2022-11-20T14:04:58;15.00;57.80
3986;DHT22;2007;48.750;9.278;2022-11-20T14:07:33;15.00;57.80
3986;DHT22;2007;48.750;9.278;2022-11-20T14:10:03;15.00;57.80
3986;DHT22;2007;48.750;9.278;2022-11-20T14:12:33;15.00;57.80
3986;DHT22;2007;48.750;9.278;2022-11-20T14:15:05;15.00;57.80
3986;DHT22;2007;48.750;9.278;2022-11-20T14:17:35;15.00;57.70
3986;DHT22;2007;48.750;9.278;2022-11-20T14:20:06;15.00;57.80
3986;DHT22;2007;48.750;9.278;2022-11-20T14:22:39;15.00;57.80
3986;DHT22;2007;48.750;9.278;2022-11-20T14:25:19;15.00;57.80
3986;DHT22;2007;48.750;9.278;2022-11-20T14:27:52;15.00;57.80
3986;DHT22;2007;48.750;9.278;2022-11-20T14:30:22;15.00;57.80
3986;DHT22;2007;48.750;9.278;2022-11-20T14:32:55;15.00;57.80
3986;DHT22;2007;48.750;9.278;2022-11-20T14:35:26;15.00;57.70
3986;DHT22;2007;48.750;9.278;2022-11-20T14:37:55;15.00;57.70
3986;DHT22;2007;48.750;9.278;2022-11-20T14:40:26;15.00;57.70
3986;DHT22;2007;48.750;9.278;2022-11-20T14:42:55;15.00;57.70
3986;DHT22;2007;48.750;9.278;2022-11-20T14:45:23;15.00;57.70
3986;DHT22;2007;48.750;9.278;2022-11-20T14:47:55;15.00;57.70
3986;DHT22;2007;48.750;9.278;2022-11-20T14:50:26;15.00;57.70
3986;DHT22;2007;48.750;9.278;2022-11-20T14:52:55;15.00;57.70
3986;DHT22;2007;48.750;9.278;2022-11-20T14:55:28;15.00;57.70
3986;DHT22;2007;48.750;9.278;2022-11-20T14:57:58;15.00;57.70
3986;DHT22;2007;48.750;9.278;2022-11-20T15:00:26;15.00;57.70
3986;DHT22;2007;48.750;9.278;2022-11-20T15:02:56;15.00;57.70
3986;DHT22;2007;48.750;9.278;2022-11-20T15:05:25;15.00;58.30
3986;DHT22;2007;48.750;9.278;2022-11-20T15:08:06;15.00;57.70
3986;DHT22;2007;48.750;9.278;2022-11-20T15:10:34;15.00;57.70
3986;DHT22;2007;48.750;9.278;2022-11-20T15:13:06;15.00;57.70
3986;DHT22;2007;48.750;9.278;2022-11-20T15:15:43;15.00;57.70
3986;DHT22;2007;48.750;9.278;2022-11-20T15:18:15;15.00;57.70
3986;DHT22;2007;48.750;9.278;2022-11-20T15:20:44;15.00;57.70
3986;DHT22;2007;48.750;9.278;2022-11-20T15:23:12;15.00;57.70
3986;DHT22;2007;48.750;9.278;2022-11-20T15:25:41;15.00;57.70
3986;DHT22;2007;48.750;9.278;2022-11-20T15:28:16;15.00;57.60
3986;DHT22;2007;48.750;9.278;2022-11-20T15:30:44;15.00;57.70
3986;DHT22;2007;48.750;9.278;2022-11-20T15:33:14;15.00;57.70
3986;DHT22;2007;48.750;9.278;2022-11-20T15:35:43;15.00;57.70
3986;DHT22;2007;48.750;9.278;2022-11-20T15:38:11;15.00;57.70
3986;DHT22;2007;48.750;9.278;2022-11-20T15:40:39;15.00;57.70
3986;DHT22;2007;48.750;9.278;2022-11-20T15:43:07;15.00;57.70
3986;DHT22;2007;48.750;9.278;2022-11-20T15:45:42;15.00;57.70
3986;DHT22;2007;48.750;9.278;2022-11-20T15:48:13;15.00;57.70
3986;DHT22;2007;48.750;9.278;2022-11-20T15:50:49;15.10;57.80
3986;DHT22;2007;48.750;9.278;2022-11-20T15:53:18;15.00;57.70
3986;DHT22;2007;48.750;9.278;2022-11-20T15:55:46;15.00;57.60
3986;DHT22;2007;48.750;9.278;2022-11-20T15:58:14;15.00;57.70
3986;DHT22;2007;48.750;9.278;2022-11-20T16:00:43;15.00;57.60
3986;DHT22;2007;48.750;9.278;2022-11-20T16:03:12;15.00;57.70
3986;DHT22;2007;48.750;9.278;2022-11-20T16:05:41;15.00;57.70
3986;DHT22;2007;48.750;9.278;2022-11-20T16:08:09;15.00;57.60
3986;DHT22;2007;48.750;9.278;2022-11-20T16:10:38;15.00;57.60
3986;DHT22;2007;48.750;9.278;2022-11-20T16:13:12;15.00;57.70
3986;DHT22;2007;48.750;9.278;2022-11-20T16:15:59;15.00;57.60
3986;DHT22;2007;48.750;9.278;2022-11-20T16:18:27;15.00;57.60
3986;DHT22;2007;48.750;9.278;2022-11-20T16:20:56;15.00;57.70
3986;DHT22;2007;48.750;9.278;2022-11-20T16:23:24;15.00;57.70
3986;DHT22;2007;48.750;9.278;2022-11-20T16:25:52;15.00;57.70
3986;DHT22;2007;48.750;9.278;2022-11-20T16:28:20;15.00;57.60
3986;DHT22;2007;48.750;9.278;2022-11-20T16:30:48;15.00;57.70
3986;DHT22;2007;48.750;9.278;2022-11-20T16:33:16;15.00;57.60
3986;DHT22;2007;48.750;9.278;2022-11-20T16:35:44;15.00;57.60
3986;DHT22;2007;48.750;9.278;2022-11-20T16:38:13;15.00;57.60
3986;DHT22;2007;48.750;9.278;2022-11-20T16:40:41;15.00;57.70
3986;DHT22;2007;48.750;9.278;2022-11-20T16:43:10;15.00;57.60
3986;DHT22;2007;48.750;9.278;2022-11-20T16:45:42;15.00;57.60
3986;DHT22;2007;48.750;9.278;2022-11-20T16:48:15;15.00;57.70
3986;DHT22;2007;48.750;9.278;2022-11-20T16:50:48;15.00;57.60
3986;DHT22;2007;48.750;9.278;2022-11-20T16:53:18;15.00;57.60
3986;DHT22;2007;48.750;9.278;2022-11-20T16:55:46;15.00;57.60
3986;DHT22;2007;48.750;9.278;2022-11-20T16:58:14;15.00;57.60
3986;DHT22;2007;48.750;9.278;2022-11-20T17:00:42;15.00;57.60
3986;DHT22;2007;48.750;9.278;2022-11-20T17:03:17;15.10;57.70
3986;DHT22;2007;48.750;9.278;2022-11-20T17:05:46;15.00;57.60
3986;DHT22;2007;48.750;9.278;2022-11-20T17:08:14;15.00;57.70
3986;DHT22;2007;48.750;9.278;2022-11-20T17:10:43;15.00;58.00
3986;DHT22;2007;48.750;9.278;2022-11-20T17:13:11;15.00;57.60
3986;DHT22;2007;48.750;9.278;2022-11-20T17:15:39;15.00;57.70
3986;DHT22;2007;48.750;9.278;2022-11-20T17:18:07;15.00;57.60
3986;DHT22;2007;48.750;9.278;2022-11-20T17:20:34;15.00;57.60
3986;DHT22;2007;48.750;9.278;2022-11-20T17:23:02;15.00;57.70
3986;DHT22;2007;48.750;9.278;2022-11-20T17:25:31;15.00;57.60
3986;DHT22;2007;48.750;9.278;2022-11-20T17:28:01;15.00;57.70
3986;DHT22;2007;48.750;9.278;2022-11-20T17:30:29;15.00;57.60
3986;DHT22;2007;48.750;9.278;2022-11-20T17:32:57;15.10;57.70
3986;DHT22;2007;48.750;9.278;2022-11-20T17:35:25;15.00;57.70
3986;DHT22;2007;48.750;9.278;2022-11-20T17:37:53;15.00;57.70
3986;DHT22;2007;48.750;9.278;2022-11-20T17:40:21;15.00;57.60
3986;DHT22;2007;48.750;9.278;2022-11-20T17:42:53;15.00;57.60
3986;DHT22;2007;48.750;9.278;2022-11-20T17:45:22;15.10;57.80
3986;DHT22;2007;48.750;9.278;2022-11-20T17:47:50;15.00;57.60
3986;DHT22;2007;48.750;9.278;2022-11-20T17:50:18;15.00;57.60
3986;DHT22;2007;48.750;9.278;2022-11-20T17:52:46;15.00;57.60
3986;DHT22;2007;48.750;9.278;2022-11-20T17:55:14;15.00;57.60
3986;DHT22;2007;48.750;9.278;2022-11-20T17:57:42;15.00;57.60
3986;DHT22;2007;48.750;9.278;2022-11-20T18:00:18;15.10;57.80
3986;DHT22;2007;48.750;9.278;2022-11-20T18:02:49;15.10;57.70
3986;DHT22;2007;48.750;9.278;2022-11-20T18:05:17;15.10;57.70
3986;DHT22;2007;48.750;9.278;2022-11-20T18:07:44;15.00;57.60
3986;DHT22;2007;48.750;9.278;2022-11-20T18:10:12;15.00;57.60
3986;DHT22;2007;48.750;9.278;2022-11-20T18:12:40;15.10;57.70
3986;DHT22;2007;48.750;9.278;2022-11-20T18:15:09;15.00;57.60
3986;DHT22;2007;48.750;9.278;2022-11-20T18:17:37;15.10;57.70
3986;DHT22;2007;48.750;9.278;2022-11-20T18:20:07;15.00;57.60
3986;DHT22;2007;48.750;9.278;2022-11-20T18:22:56;15.00;57.60
3986;DHT22;2007;48.750;9.278;2022-11-20T18:25:24;15.00;57.60
3986;DHT22;2007;48.750;9.278;2022-11-20T18:27:51;15.10;57.70
3986;DHT22;2007;48.750;9.278;2022-11-20T18:30:20;15.00;57.60
3986;DHT22;2007;48.750;9.278;2022-11-20T18:32:48;15.10;57.70
3986;DHT22;2007;48.750;9.278;2022-11-20T18:35:18;15.00;58.30
3986;DHT22;2007;48.750;9.278;2022-11-20T18:37:45;15.00;57.60
3986;DHT22;2007;48.750;9.278;2022-11-20T18:40:14;15.10;57.70
3986;DHT22;2007;48.750;9.278;2022-11-20T18:42:42;15.00;57.60
3986;DHT22;2007;48.750;9.278;2022-11-20T18:45:27;15.00;57.60
3986;DHT22;2007;48.750;9.278;2022-11-20T18:47:56;15.00;57.60
3986;DHT22;2007;48.750;9.278;2022-11-20T18:50:25;15.10;57.70
3986;DHT22;2007;48.750;9.278;2022-11-20T18:52:53;15.10;57.70
3986;DHT22;2007;48.750;9.278;2022-11-20T18:55:20;15.00;57.60
3986;DHT22;2007;48.750;9.278;2022-11-20T18:57:51;15.10;57.70
3986;DHT22;2007;48.750;9.278;2022-11-20T19:00:21;15.10;57.70
3986;DHT22;2007;48.750;9.278;2022-11-20T19:02:51;15.10;57.70
3986;DHT22;2007;48.750;9.278;2022-11-20T19:05:20;15.10;57.70
3986;DHT22;2007;48.750;9.278;2022-11-20T19:07:49;15.00;57.60
3986;DHT22;2007;48.750;9.278;2022-11-20T19:10:18;15.00;57.60
3986;DHT22;2007;48.750;9.278;2022-11-20T19:12:46;15.10;57.70
3986;DHT22;2007;48.750;9.278;2022-11-20T19:15:14;15.10;57.70
3986;DHT22;2007;48.750;9.278;2022-11-20T19:17:42;15.10;57.70
3986;DHT22;2007;48.750;9.278;2022-11-20T19:20:11;15.10;57.70
3986;DHT22;2007;48.750;9.278;2022-11-20T19:22:39;15.10;57.70
3986;DHT22;2007;48.750;9.278;2022-11-20T19:25:09;15.10;57.70
3986;DHT22;2007;48.750;9.278;2022-11-20T19:27:36;15.00;57.60
3986;DHT22;2007;48.750;9.278;2022-11-20T19:30:05;15.00;57.60
3986;DHT22;2007;48.750;9.278;2022-11-20T19:32:33;15.10;57.60
3986;DHT22;2007;48.750;9.278;2022-11-20T19:35:01;15.00;57.60
3986;DHT22;2007;48.750;9.278;2022-11-20T19:37:31;15.00;57.60
3986;DHT22;2007;48.750;9.278;2022-11-20T19:39:59;15.10;57.60
3986;DHT22;2007;48.750;9.278;2022-11-20T19:42:31;15.10;57.60
3986;DHT22;2007;48.750;9.278;2022-11-20T19:44:59;15.00;57.60
3986;DHT22;2007;48.750;9.278;2022-11-20T19:47:27;15.10;57.60
3986;DHT22;2007;48.750;9.278;2022-11-20T19:50:15;15.00;57.60
3986;DHT22;2007;48.750;9.278;2022-11-20T19:52:43;15.10;57.60
3986;DHT22;2007;48.750;9.278;2022-11-20T19:55:11;15.10;57.60
3986;DHT22;2007;48.750;9.278;2022-11-20T19:57:40;15.10;57.60
3986;DHT22;2007;48.750;9.278;2022-11-20T20:00:09;15.00;57.60
3986;DHT22;2007;48.750;9.278;2022-11-20T20:02:38;15.00;57.60
3986;DHT22;2007;48.750;9.278;2022-11-20T20:05:06;15.10;57.60
3986;DHT22;2007;48.750;9.278;2022-11-20T20:07:34;15.10;57.60
3986;DHT22;2007;48.750;9.278;2022-11-20T20:10:02;15.00;57.60
3986;DHT22;2007;48.750;9.278;2022-11-20T20:12:30;15.10;57.60
3986;DHT22;2007;48.750;9.278;2022-11-20T20:14:59;15.10;57.60
3986;DHT22;2007;48.750;9.278;2022-11-20T20:17:27;15.10;57.60
3986;DHT22;2007;48.750;9.278;2022-11-20T20:19:55;15.10;58.30
3986;DHT22;2007;48.750;9.278;2022-11-20T20:22:23;15.00;57.50
3986;DHT22;2007;48.750;9.278;2022-11-20T20:24:51;15.00;57.60
3986;DHT22;2007;48.750;9.278;2022-11-20T20:27:18;15.00;57.50
3986;DHT22;2007;48.750;9.278;2022-11-20T20:29:46;15.00;57.50
3986;DHT22;2007;48.750;9.278;2022-11-20T20:32:15;15.00;57.50
3986;DHT22;2007;48.750;9.278;2022-11-20T20:34:43;15.00;57.50
3986;DHT22;2007;48.750;9.278;2022-11-20T20:37:11;15.00;57.50
3986;DHT22;2007;48.750;9.278;2022-11-20T20:39:39;15.10;57.60
3986;DHT22;2007;48.750;9.278;2022-11-20T20:42:07;15.00;57.50
3986;DHT22;2007;48.750;9.278;2022-11-20T20:44:36;15.00;57.50
3986;DHT22;2007;48.750;9.278;2022-11-20T20:47:23;15.00;57.50
3986;DHT22;2007;48.750;9.278;2022-11-20T20:49:50;15.00;57.60
3986;DHT22;2007;48.750;9.278;2022-11-20T20:52:19;15.00;57.50
3986;DHT22;2007;48.750;9.278;2022-11-20T20:54:47;15.10;57.60
3986;DHT22;2007;48.750;9.278;2022-11-20T20:57:14;15.00;57.50
3986;DHT22;2007;48.750;9.278;2022-11-20T20:59:42;15.00;57.50
3986;DHT22;2007;48.750;9.278;2022-11-20T21:02:10;15.00;57.50
3986;DHT22;2007;48.750;9.278;2022-11-20T21:04:40;15.10;57.60
3986;DHT22;2007;48.750;9.278;2022-11-20T21:07:08;15.00;57.50
3986;DHT22;2007;48.750;9.278;2022-11-20T21:09:36;15.00;57.50
3986;DHT22;2007;48.750;9.278;2022-11-20T21:12:04;15.00;57.50
3986;DHT22;2007;48.750;9.278;2022-11-20T21:14:33;15.00;57.50
3986;DHT22;2007;48.750;9.278;2022-11-20T21:17:01;15.00;57.50
3986;DHT22;2007;48.750;9.278;2022-11-20T21:19:29;15.00;57.50
3986;DHT22;2007;48.750;9.278;2022-11-20T21:21:59;15.10;58.20
3986;DHT22;2007;48.750;9.278;2022-11-20T21:24:30;15.10;57.60
3986;DHT22;2007;48.750;9.278;2022-11-20T21:26:59;15.00;57.50
3986;DHT22;2007;48.750;9.278;2022-11-20T21:29:28;15.10;57.60
3986;DHT22;2007;48.750;9.278;2022-11-20T21:31:57;15.00;57.50
3986;DHT22;2007;48.750;9.278;2022-11-20T21:34:25;15.00;57.50
3986;DHT22;2007;48.750;9.278;2022-11-20T21:36:53;15.10;57.60
3986;DHT22;2007;48.750;9.278;2022-11-20T21:39:22;15.10;57.60
3986;DHT22;2007;48.750;9.278;2022-11-20T21:41:50;15.00;57.50
3986;DHT22;2007;48.750;9.278;2022-11-20T21:44:18;15.00;57.50
3986;DHT22;2007;48.750;9.278;2022-11-20T21:47:01;15.00;57.50
3986;DHT22;2007;48.750;9.278;2022-11-20T21:49:29;15.00;57.50
3986;DHT22;2007;48.750;9.278;2022-11-20T21:51:57;15.00;57.50
3986;DHT22;2007;48.750;9.278;2022-11-20T21:54:26;15.00;57.50
3986;DHT22;2007;48.750;9.278;2022-11-20T21:56:54;15.00;57.50
3986;DHT22;2007;48.750;9.278;2022-11-20T21:59:22;15.00;57.50
3986;DHT22;2007;48.750;9.278;2022-11-20T22:01:50;15.00;57.50
3986;DHT22;2007;48.750;9.278;2022-11-20T22:04:18;15.00;57.50
3986;DHT22;2007;48.750;9.278;2022-11-20T22:06:48;15.10;57.60
3986;DHT22;2007;48.750;9.278;2022-11-20T22:09:16;15.00;57.50
3986;DHT22;2007;48.750;9.278;2022-11-20T22:11:47;15.00;57.50
3986;DHT22;2007;48.750;9.278;2022-11-20T22:14:14;15.00;57.50
3986;DHT22;2007;48.750;9.278;2022-11-20T22:16:48;15.00;57.50
3986;DHT22;2007;48.750;9.278;2022-11-20T22:19:17;15.00;57.50
3986;DHT22;2007;48.750;9.278;2022-11-20T22:21:46;15.00;57.50
3986;DHT22;2007;48.750;9.278;2022-11-20T22:24:15;15.00;57.50
3986;DHT22;2007;48.750;9.278;2022-11-20T22:26:44;15.00;57.50
3986;DHT22;2007;48.750;9.278;2022-11-20T22:29:15;15.00;57.50
3986;DHT22;2007;48.750;9.278;2022-11-20T22:31:43;15.10;57.60
3986;DHT22;2007;48.750;9.278;2022-11-20T22:34:12;15.00;57.50
3986;DHT22;2007;48.750;9.278;2022-11-20T22:36:40;15.10;57.60
3986;DHT22;2007;48.750;9.278;2022-11-20T22:39:09;15.00;57.50
3986;DHT22;2007;48.750;9.278;2022-11-20T22:41:37;15.10;57.60
3986;DHT22;2007;48.750;9.278;2022-11-20T22:44:06;15.10;57.60
3986;DHT22;2007;48.750;9.278;2022-11-20T22:46:36;15.00;57.50
3986;DHT22;2007;48.750;9.278;2022-11-20T22:49:06;15.10;57.60
3986;DHT22;2007;48.750;9.278;2022-11-20T22:51:36;15.10;57.60
3986;DHT22;2007;48.750;9.278;2022-11-20T22:54:05;15.00;57.50
3986;DHT22;2007;48.750;9.278;2022-11-20T22:56:33;15.10;57.60
3986;DHT22;2007;48.750;9.278;2022-11-20T22:59:02;15.10;57.60
3986;DHT22;2007;48.750;9.278;2022-11-20T23:01:31;15.10;57.60
3986;DHT22;2007;48.750;9.278;2022-11-20T23:04:02;15.10;57.60
3986;DHT22;2007;48.750;9.278;2022-11-20T23:06:31;15.10;57.60
3986;DHT22;2007;48.750;9.278;2022-11-20T23:09:01;15.10;57.60
3986;DHT22;2007;48.750;9.278;2022-11-20T23:11:30;15.10;57.60
3986;DHT22;2007;48.750;9.278;2022-11-20T23:13:59;15.10;57.60
3986;DHT22;2007;48.750;9.278;2022-11-20T23:16:28;15.10;57.60
3986;DHT22;2007;48.750;9.278;2022-11-20T23:18:59;15.10;57.60
3986;DHT22;2007;48.750;9.278;2022-11-20T23:21:29;15.00;57.50
3986;DHT22;2007;48.750;9.278;2022-11-20T23:23:58;15.10;57.60
3986;DHT22;2007;48.750;9.278;2022-11-20T23:26:30;15.10;57.60
3986;DHT22;2007;48.750;9.278;2022-11-20T23:28:59;15.10;57.60
3986;DHT22;2007;48.750;9.278;2022-11-20T23:31:29;15.10;57.60
3986;DHT22;2007;48.750;9.278;2022-11-20T23:33:58;15.10;57.60
3986;DHT22;2007;48.750;9.278;2022-11-20T23:36:26;15.10;57.60
3986;DHT22;2007;48.750;9.278;2022-11-20T23:38:55;15.10;57.60
3986;DHT22;2007;48.750;9.278;2022-11-20T23:41:23;15.10;57.60
3986;DHT22;2007;48.750;9.278;2022-11-20T23:43:51;15.10;57.60
3986;DHT22;2007;48.750;9.278;2022-11-20T23:46:19;15.10;57.60
3986;DHT22;2007;48.750;9.278;2022-11-20T23:48:47;15.10;57.60
3986;DHT22;2007;48.750;9.278;2022-11-20T23:51:15;15.10;57.60
3986;DHT22;2007;48.750;9.278;2022-11-20T23:53:43;15.10;57.60
3986;DHT22;2007;48.750;9.278;2022-11-20T23:56:13;15.10;57.60
3986;DHT22;2007;48.750;9.278;2022-11-20T23:58:41;15.10;57.60
